Time;durP1;ratioP1;P1;durP2;ratioP2;P2;SDS_P1;SDS_P2;PMS_P1;PMS_P2;Temp;Humidity;BMP_temperature;BMP_pressure;BME280_temperature;BME280_humidity;BME280_pressure;Samples;Min_cycle;Max_cycle;Signal;HPM_P1;HPM_P2
2023/01/20 00:01:20;;;;;;;1.73;1.63;;;;;;;2.36;62.00;94631.72;4327688;32;20282;-64
2023/01/20 00:03:46;;;;;;;1.47;1.37;;;;;;;2.52;61.96;94628.09;4327300;32;20301;-65
2023/01/20 00:06:14;;;;;;;1.00;1.00;;;;;;;2.71;61.03;94637.00;4326861;32;20296;-65
2023/01/20 00:08:39;;;;;;;1.53;1.43;;;;;;;2.33;61.68;94643.50;4309070;32;20373;-65
2023/01/20 00:11:08;;;;;;;1.13;1.13;;;;;;;2.34;61.91;94639.06;4320491;33;20274;-65
2023/01/20 00:13:35;;;;;;;0.90;0.90;;;;;;;2.46;61.33;94639.62;4300868;32;20190;-65
2023/01/20 00:16:04;;;;;;;1.80;1.70;;;;;;;2.12;62.06;94638.47;4311915;33;20291;-64
2023/01/20 00:18:30;;;;;;;1.40;1.40;;;;;;;2.39;61.69;94641.69;4296870;33;20346;-65
2023/01/20 00:21:00;;;;;;;1.37;1.33;;;;;;;2.62;60.00;94635.97;4314991;32;20309;-65
2023/01/20 00:23:25;;;;;;;0.90;0.90;;;;;;;2.29;60.34;94646.88;4283987;33;20303;-65
2023/01/20 00:25:53;;;;;;;1.07;1.00;;;;;;;2.19;61.15;94645.03;4304154;33;20341;-64
2023/01/20 00:28:20;;;;;;;1.00;1.00;;;;;;;2.48;59.88;94652.44;4323348;32;20181;-64
2023/01/20 00:30:47;;;;;;;1.07;1.07;;;;;;;2.45;59.88;94648.50;4327735;32;20290;-64
2023/01/20 00:33:13;;;;;;;0.40;0.40;;;;;;;2.72;58.92;94651.66;4264370;33;20331;-65
2023/01/20 00:35:42;;;;;;;1.60;1.50;;;;;;;2.51;59.51;94651.91;4301389;32;20366;-65
2023/01/20 00:38:08;;;;;;;1.13;1.13;;;;;;;2.37;59.94;94651.63;4284869;33;20295;-65
2023/01/20 00:40:34;;;;;;;0.60;0.60;;;;;;;2.20;60.47;94662.31;4313877;33;20295;-62
2023/01/20 00:43:00;;;;;;;0.60;0.60;;;;;;;2.57;59.41;94654.28;4316876;33;20298;-63
2023/01/20 00:45:25;;;;;;;1.60;1.50;;;;;;;2.58;59.51;94653.22;4330198;32;20348;-63
2023/01/20 00:47:50;;;;;;;1.37;1.37;;;;;;;2.56;59.12;94654.53;4306250;33;20214;-65
2023/01/20 00:50:16;;;;;;;1.13;1.10;;;;;;;2.30;59.86;94661.53;4324185;32;20201;-65
2023/01/20 00:52:41;;;;;;;0.80;0.80;;;;;;;2.52;59.62;94656.88;4331728;32;20197;-65
2023/01/20 00:55:07;;;;;;;0.77;0.77;;;;;;;2.33;60.14;94661.03;4329968;33;20252;-65
2023/01/20 00:57:32;;;;;;;0.77;0.77;;;;;;;2.05;61.40;94663.06;4316875;33;20190;-65
2023/01/20 00:59:57;;;;;;;0.73;0.73;;;;;;;2.15;61.15;94664.09;4335023;32;20186;-65
2023/01/20 01:02:23;;;;;;;1.50;1.13;;;;;;;2.32;60.89;94660.25;4337176;32;20224;-65
2023/01/20 01:04:49;;;;;;;0.50;0.50;;;;;;;2.38;61.09;94667.06;4328374;33;20197;-65
2023/01/20 01:07:15;;;;;;;1.03;1.03;;;;;;;2.36;60.23;94657.91;4323605;33;20329;-65
2023/01/20 01:09:40;;;;;;;0.60;0.60;;;;;;;2.01;61.96;94669.81;4330286;32;20278;-64
2023/01/20 01:12:06;;;;;;;0.90;0.90;;;;;;;2.21;61.78;94676.19;4329998;32;20271;-65
2023/01/20 01:14:31;;;;;;;0.23;0.23;;;;;;;2.45;61.15;94668.66;4331008;32;20277;-65
2023/01/20 01:16:56;;;;;;;0.60;0.60;;;;;;;2.39;61.32;94670.47;4329561;33;20186;-65
2023/01/20 01:19:22;;;;;;;0.87;0.87;;;;;;;2.39;61.37;94673.09;4321282;33;20216;-65
2023/01/20 01:21:47;;;;;;;1.03;1.03;;;;;;;2.29;61.74;94678.28;4316402;33;20209;-65
2023/01/20 01:24:12;;;;;;;1.03;1.00;;;;;;;1.94;62.49;94678.94;4316925;32;20194;-65
2023/01/20 01:26:38;;;;;;;0.50;0.50;;;;;;;2.04;63.06;94679.78;4329916;33;20186;-65
2023/01/20 01:29:03;;;;;;;0.80;0.80;;;;;;;2.23;62.76;94687.16;4332269;32;20193;-65
2023/01/20 01:31:28;;;;;;;1.13;1.13;;;;;;;2.13;63.41;94681.87;4318320;33;20182;-65
2023/01/20 01:33:53;;;;;;;0.93;0.93;;;;;;;2.45;62.79;94679.91;4330046;32;20190;-65
2023/01/20 01:36:19;;;;;;;1.53;1.20;;;;;;;2.59;62.15;94683.59;4315561;33;20245;-65
2023/01/20 01:38:44;;;;;;;0.73;0.73;;;;;;;2.60;62.28;94687.78;4299466;33;20197;-65
2023/01/20 01:41:12;;;;;;;1.93;0.73;;;;;;;2.22;64.35;94690.84;4339227;32;20181;-65
2023/01/20 01:43:38;;;;;;;0.70;0.70;;;;;;;2.37;63.55;94693.50;4331873;32;20216;-65
2023/01/20 01:46:04;;;;;;;1.30;1.30;;;;;;;2.52;63.03;94685.66;4317013;33;20304;-65
2023/01/20 01:48:42;;;;;;;0.50;0.50;;;;;;;2.11;64.39;94687.38;4330195;32;20298;-65
2023/01/20 01:51:13;;;;;;;1.00;1.00;;;;;;;1.92;65.01;94689.66;4320456;32;20220;-65
2023/01/20 01:53:42;;;;;;;1.67;1.60;;;;;;;1.89;65.22;94687.53;4315974;33;20338;-65
2023/01/20 01:56:09;;;;;;;1.43;1.33;;;;;;;2.22;64.24;94685.59;4319958;32;20286;-64
2023/01/20 01:58:37;;;;;;;1.23;1.23;;;;;;;2.05;64.30;94688.41;4320512;33;20327;-64
2023/01/20 02:01:03;;;;;;;2.00;1.33;;;;;;;1.95;65.37;94685.75;4325291;33;20294;-64
2023/01/20 02:03:38;;;;;;;0.60;0.60;;;;;;;1.82;65.85;94689.63;4332117;32;20297;-65
2023/01/20 02:06:05;;;;;;;1.70;0.97;;;;;;;1.69;66.56;94687.44;4316301;33;20215;-65
2023/01/20 02:08:31;;;;;;;0.67;0.67;;;;;;;1.47;67.49;94692.00;4337052;32;20313;-65
2023/01/20 02:10:56;;;;;;;0.70;0.70;;;;;;;1.92;66.25;94689.66;4322421;33;20333;-64
2023/01/20 02:13:21;;;;;;;1.23;1.00;;;;;;;1.98;65.83;94691.25;4331523;33;20202;-64
2023/01/20 02:16:00;;;;;;;0.80;0.80;;;;;;;1.81;66.20;94695.87;4333023;32;20260;-65
2023/01/20 02:18:48;;;;;;;1.70;1.37;;;;;;;2.17;65.37;94688.97;4324883;32;20228;-64
2023/01/20 02:21:43;;;;;;;0.53;0.53;;;;;;;1.90;66.10;94693.56;4328546;32;20328;-64
2023/01/20 02:24:20;;;;;;;2.07;1.43;;;;;;;1.90;66.25;94694.34;4306172;33;20282;-65
2023/01/20 02:27:04;;;;;;;2.13;1.77;;;;;;;1.72;66.61;94697.38;4329280;33;20302;-64
2023/01/20 02:29:38;;;;;;;0.50;0.50;;;;;;;1.60;66.88;94702.03;4313671;32;20327;-65
2023/01/20 02:32:21;;;;;;;1.37;1.37;;;;;;;1.49;68.07;94697.75;4329738;32;20274;-65
2023/01/20 02:34:57;;;;;;;1.10;1.10;;;;;;;1.77;67.33;94700.03;4326197;32;20287;-65
2023/01/20 02:37:41;;;;;;;1.63;1.53;;;;;;;1.87;66.76;94702.69;4340802;32;20296;-64
2023/01/20 02:40:25;;;;;;;2.83;2.03;;;;;;;1.80;67.65;94704.75;4331389;32;20347;-65
2023/01/20 02:43:07;;;;;;;3.97;1.80;;;;;;;1.84;67.54;94705.06;4315222;33;20297;-65
2023/01/20 02:45:50;;;;;;;1.80;1.70;;;;;;;1.73;67.29;94706.81;4334025;32;20286;-65
2023/01/20 02:48:38;;;;;;;1.77;1.57;;;;;;;1.66;67.89;94706.25;4334642;32;20313;-65
2023/01/20 02:51:10;;;;;;;0.80;0.80;;;;;;;1.85;67.07;94712.66;4307599;33;20293;-65
2023/01/20 02:53:52;;;;;;;0.90;0.83;;;;;;;1.64;67.54;94705.72;4339308;32;20290;-65
2023/01/20 02:56:21;;;;;;;1.50;1.50;;;;;;;1.90;66.99;94712.66;4328646;32;20305;-65
2023/01/20 02:58:55;;;;;;;1.17;1.17;;;;;;;2.16;66.12;94710.16;4319277;32;20278;-65
2023/01/20 03:01:35;;;;;;;1.40;1.30;;;;;;;1.75;67.24;94719.63;4328043;32;20286;-65
2023/01/20 03:04:03;;;;;;;1.20;1.13;;;;;;;1.78;67.48;94719.13;4341652;32;20289;-65
2023/01/20 03:06:33;;;;;;;1.43;1.37;;;;;;;1.88;67.51;94717.34;4327225;32;20290;-65
2023/01/20 03:09:03;;;;;;;1.40;1.40;;;;;;;1.90;66.68;94710.03;4328548;32;20278;-65
2023/01/20 03:11:32;;;;;;;3.30;0.60;;;;;;;1.98;66.37;94720.03;4315436;33;20321;-65
2023/01/20 03:14:14;;;;;;;1.40;1.27;;;;;;;2.27;64.82;94724.88;4326074;32;20334;-65
2023/01/20 03:16:40;;;;;;;0.93;0.63;;;;;;;2.29;64.14;94728.00;4343736;32;20308;-65
2023/01/20 03:19:05;;;;;;;1.13;1.07;;;;;;;2.20;64.37;94724.31;4317398;32;20270;-65
2023/01/20 03:21:33;;;;;;;1.50;1.40;;;;;;;2.10;64.23;94724.25;4330659;32;20316;-65
2023/01/20 03:24:04;;;;;;;1.77;1.67;;;;;;;2.11;64.04;94723.22;4326246;33;20210;-65
2023/01/20 03:26:30;;;;;;;1.60;1.60;;;;;;;2.27;63.23;94725.66;4326287;33;20321;-65
2023/01/20 03:28:56;;;;;;;0.70;0.70;;;;;;;1.88;63.81;94733.03;4326907;33;20269;-65
2023/01/20 03:31:27;;;;;;;1.73;1.43;;;;;;;1.90;64.23;94738.78;4328464;33;20185;-65
2023/01/20 03:33:56;;;;;;;0.67;0.67;;;;;;;1.86;63.75;94734.34;4328037;33;20282;-65
2023/01/20 03:36:24;;;;;;;1.20;1.20;;;;;;;1.81;64.01;94731.69;4325906;33;20380;-64
2023/01/20 03:38:50;;;;;;;1.90;1.80;;;;;;;1.65;65.37;94739.44;4315968;33;20293;-65
2023/01/20 03:41:45;;;;;;;0.60;0.60;;;;;;;1.65;65.25;94744.69;4312818;33;20292;-65
2023/01/20 03:44:17;;;;;;;5.67;1.37;;;;;;;1.74;65.49;94742.37;4304059;33;20278;-64
2023/01/20 03:47:07;;;;;;;6.33;1.60;;;;;;;1.53;66.34;94745.88;4326387;33;20294;-65
2023/01/20 03:49:40;;;;;;;0.67;0.67;;;;;;;1.69;65.87;94742.31;4306887;33;20297;-65
2023/01/20 03:52:12;;;;;;;1.07;1.07;;;;;;;1.50;67.07;94757.63;4330145;32;20321;-65
2023/01/20 03:54:46;;;;;;;1.60;0.37;;;;;;;1.44;67.54;94760.47;4334833;33;20384;-65
2023/01/20 03:57:17;;;;;;;0.80;0.80;;;;;;;1.42;67.63;94759.94;4325666;33;20282;-65
2023/01/20 03:59:44;;;;;;;1.30;1.20;;;;;;;1.59;67.82;94765.78;4314537;33;20355;-65
2023/01/20 04:02:10;;;;;;;0.83;0.80;;;;;;;1.46;67.81;94768.81;4326406;33;20279;-65
2023/01/20 04:04:39;;;;;;;1.77;1.67;;;;;;;1.53;68.05;94774.63;4324941;33;20292;-65
2023/01/20 04:07:09;;;;;;;1.20;1.20;;;;;;;1.55;67.85;94770.72;4328187;33;20282;-65
2023/01/20 04:09:39;;;;;;;0.47;0.47;;;;;;;1.73;67.29;94766.94;4328361;33;20297;-65
2023/01/20 04:12:05;;;;;;;0.70;0.70;;;;;;;1.64;67.27;94773.69;4327582;33;20337;-65
2023/01/20 04:14:30;;;;;;;0.30;0.30;;;;;;;1.51;68.09;94776.69;4333220;32;20304;-65
2023/01/20 04:16:57;;;;;;;1.43;1.37;;;;;;;1.69;67.82;94781.53;4331832;32;20189;-65
2023/01/20 04:19:23;;;;;;;3.40;1.03;;;;;;;1.33;69.13;94783.88;4347610;32;20257;-64
2023/01/20 04:21:59;;;;;;;0.73;0.73;;;;;;;1.41;69.56;94784.47;4344596;32;20294;-64
2023/01/20 04:24:42;;;;;;;1.40;1.35;;;;;;;1.27;70.13;94784.88;4344175;32;20375;-65
2023/01/20 04:27:07;;;;;;;0.52;0.52;;;;;;;1.24;71.25;94788.00;4331856;32;20221;-64
2023/01/20 04:29:33;;;;;;;0.37;0.37;;;;;;;1.26;71.81;94791.12;4345785;32;20182;-65
2023/01/20 04:31:59;;;;;;;0.43;0.43;;;;;;;1.30;72.30;94789.59;4330822;32;20189;-65
2023/01/20 04:34:25;;;;;;;1.20;1.12;;;;;;;1.27;73.18;94790.09;4331491;32;20255;-65
2023/01/20 04:36:50;;;;;;;1.03;1.03;;;;;;;0.96;74.96;94788.25;4347681;32;20189;-64
2023/01/20 04:39:15;;;;;;;0.53;0.53;;;;;;;0.90;75.76;94805.69;4332017;32;20193;-64
2023/01/20 04:41:41;;;;;;;0.80;0.80;;;;;;;1.18;75.34;94804.66;4331356;32;20194;-64
2023/01/20 04:44:06;;;;;;;0.93;0.93;;;;;;;1.25;75.48;94807.84;4345650;32;20347;-64
2023/01/20 04:46:31;;;;;;;0.73;0.67;;;;;;;1.33;75.75;94814.44;4331459;32;20197;-64
2023/01/20 04:48:57;;;;;;;2.87;1.80;;;;;;;1.31;76.19;94813.91;4345667;32;20270;-64
2023/01/20 04:51:22;;;;;;;1.30;1.20;;;;;;;1.08;77.03;94812.38;4345981;32;20316;-64
2023/01/20 04:53:47;;;;;;;1.20;0.97;;;;;;;1.21;77.74;94811.22;4331776;32;20249;-64
2023/01/20 04:56:14;;;;;;;0.77;0.77;;;;;;;1.08;78.08;94822.81;4344772;32;20209;-64
2023/01/20 04:58:40;;;;;;;0.85;0.85;;;;;;;1.02;79.06;94824.63;4345119;32;20217;-64
2023/01/20 05:01:06;;;;;;;1.20;1.10;;;;;;;1.07;79.22;94829.09;4330888;32;20236;-64
2023/01/20 05:03:32;;;;;;;1.10;1.10;;;;;;;1.14;79.19;94824.47;4331189;32;20205;-65
2023/01/20 05:05:57;;;;;;;0.60;0.57;;;;;;;0.99;80.58;94821.69;4331227;32;20330;-65
2023/01/20 05:08:23;;;;;;;0.67;0.67;;;;;;;1.13;80.47;94830.72;4346700;32;20189;-64
2023/01/20 05:10:48;;;;;;;0.83;0.83;;;;;;;1.05;80.64;94838.97;4330981;32;20205;-65
2023/01/20 05:13:13;;;;;;;1.03;1.03;;;;;;;1.10;80.49;94831.19;4344404;32;20247;-65
2023/01/20 05:15:39;;;;;;;1.23;1.23;;;;;;;1.28;80.01;94838.69;4340941;32;20205;-64
2023/01/20 05:18:05;;;;;;;1.60;1.53;;;;;;;1.25;80.43;94841.78;4343380;32;20177;-65
2023/01/20 05:20:30;;;;;;;1.13;1.10;;;;;;;1.06;81.16;94842.38;4330810;32;20238;-65
2023/01/20 05:22:55;;;;;;;1.87;1.77;;;;;;;0.82;81.94;94852.31;4344419;32;20193;-65
2023/01/20 05:25:21;;;;;;;1.17;1.17;;;;;;;1.09;82.19;94847.13;4346117;32;20189;-64
2023/01/20 05:27:46;;;;;;;3.77;1.73;;;;;;;1.01;82.46;94848.34;4335853;32;20185;-64
2023/01/20 05:30:14;;;;;;;1.90;1.27;;;;;;;1.08;82.65;94848.16;4343846;32;20189;-64
2023/01/20 05:32:40;;;;;;;1.25;1.15;;;;;;;0.95;83.34;94854.56;4344418;32;20193;-65
2023/01/20 05:35:06;;;;;;;1.17;1.17;;;;;;;1.03;83.13;94857.53;4330975;32;20200;-65
2023/01/20 05:37:31;;;;;;;1.23;1.17;;;;;;;1.16;82.65;94861.56;4330355;32;20193;-64
2023/01/20 05:39:56;;;;;;;1.30;1.30;;;;;;;1.14;83.54;94862.84;4344027;32;20232;-64
2023/01/20 05:42:22;;;;;;;1.57;1.47;;;;;;;1.26;83.42;94864.28;4346048;32;20198;-65
2023/01/20 05:44:47;;;;;;;1.40;1.13;;;;;;;1.35;83.23;94864.63;4333496;32;20236;-65
2023/01/20 05:47:12;;;;;;;2.03;1.97;;;;;;;1.16;83.90;94869.41;4343658;32;20248;-64
2023/01/20 05:49:38;;;;;;;0.93;0.93;;;;;;;1.00;84.01;94868.47;4330017;32;20208;-65
2023/01/20 05:52:03;;;;;;;1.43;1.33;;;;;;;1.05;84.38;94878.16;4329595;32;20256;-65
2023/01/20 05:54:28;;;;;;;2.13;2.03;;;;;;;1.05;84.07;94875.53;4343562;32;20216;-65
2023/01/20 05:56:54;;;;;;;6.40;2.00;;;;;;;0.96;84.51;94877.81;4345705;32;20219;-64
2023/01/20 05:59:19;;;;;;;1.80;1.70;;;;;;;1.22;84.57;94878.87;4342520;32;20209;-64
2023/01/20 06:01:44;;;;;;;1.20;1.20;;;;;;;1.10;83.86;94880.03;4342475;32;20288;-64
2023/01/20 06:04:10;;;;;;;0.50;0.50;;;;;;;1.09;83.89;94889.69;4329094;32;20244;-64
2023/01/20 06:06:35;;;;;;;1.67;1.63;;;;;;;1.10;84.33;94895.69;4329110;32;20239;-64
2023/01/20 06:09:00;;;;;;;1.23;0.90;;;;;;;1.03;84.49;94883.66;4342104;32;20267;-64
2023/01/20 06:11:26;;;;;;;1.13;1.13;;;;;;;0.98;84.40;94895.84;4327525;32;20193;-65
2023/01/20 06:13:51;;;;;;;1.17;1.17;;;;;;;1.26;83.13;94890.41;4343152;32;20220;-64
2023/01/20 06:16:18;;;;;;;1.80;1.80;;;;;;;1.10;83.91;94898.31;4342722;32;20201;-64
2023/01/20 06:18:43;;;;;;;1.60;1.55;;;;;;;1.27;82.92;94901.63;4342161;32;20201;-64
2023/01/20 06:21:09;;;;;;;1.93;1.33;;;;;;;1.06;82.70;94887.56;4330648;32;20246;-64
2023/01/20 06:23:34;;;;;;;0.87;0.87;;;;;;;0.99;82.65;94897.44;4342108;32;20292;-64
2023/01/20 06:26:05;;;;;;;3.23;1.27;;;;;;;1.30;81.07;94904.56;4330240;32;20240;-64
2023/01/20 06:28:31;;;;;;;0.77;0.77;;;;;;;1.09;81.42;94901.97;4332569;32;20289;-64
2023/01/20 06:31:05;;;;;;;1.05;1.05;;;;;;;0.94;81.74;94910.41;4340815;32;20268;-64
2023/01/20 06:33:31;;;;;;;1.62;1.52;;;;;;;0.89;82.27;94913.75;4327948;32;20202;-64
2023/01/20 06:35:57;;;;;;;1.55;1.45;;;;;;;1.09;81.83;94915.81;4343039;32;20201;-64
2023/01/20 06:38:25;;;;;;;1.13;1.13;;;;;;;0.94;82.20;94910.41;4331205;32;20189;-64
2023/01/20 06:40:56;;;;;;;0.67;0.67;;;;;;;1.21;81.60;94916.47;4330269;32;20327;-62
2023/01/20 06:43:21;;;;;;;1.30;1.30;;;;;;;1.24;80.16;94920.44;4327685;32;20316;-62
2023/01/20 06:45:47;;;;;;;3.90;1.50;;;;;;;1.15;80.83;94912.22;4329151;32;20193;-64
2023/01/20 06:48:12;;;;;;;0.67;0.67;;;;;;;1.22;80.59;94915.44;4341563;32;20245;-63
2023/01/20 06:50:37;;;;;;;0.73;0.73;;;;;;;1.13;79.09;94929.97;4342121;32;20201;-63
2023/01/20 06:53:03;;;;;;;4.50;2.53;;;;;;;1.12;78.52;94927.59;4329620;32;20189;-61
2023/01/20 06:55:29;;;;;;;4.93;0.97;;;;;;;1.25;82.53;94932.44;4329830;32;20251;-60
2023/01/20 06:57:55;;;;;;;1.67;1.60;;;;;;;1.95;88.11;94929.75;4342866;32;20181;-60
2023/01/20 07:00:21;;;;;;;1.17;1.17;;;;;;;2.23;83.66;94933.09;4331697;32;20311;-60
2023/01/20 07:02:47;;;;;;;1.03;1.03;;;;;;;2.37;75.35;94939.47;4342744;32;20204;-60
2023/01/20 07:05:12;;;;;;;2.27;2.07;;;;;;;3.23;79.46;94941.78;4330274;32;20289;-60
2023/01/20 07:07:38;;;;;;;1.20;1.20;;;;;;;3.08;76.58;94939.91;4341297;32;20300;-61
2023/01/20 07:10:04;;;;;;;1.70;1.60;;;;;;;3.53;76.23;94946.38;4341749;32;20193;-60
2023/01/20 07:12:29;;;;;;;1.87;1.77;;;;;;;3.56;72.77;94951.84;4329905;32;20181;-60
2023/01/20 07:14:55;;;;;;;1.13;0.90;;;;;;;3.04;71.45;94954.56;4337223;32;20409;-61
2023/01/20 07:17:20;;;;;;;0.93;0.93;;;;;;;4.79;84.78;94948.25;4335293;32;20209;-60
2023/01/20 07:19:45;;;;;;;0.87;0.87;;;;;;;6.17;84.47;94941.34;4324783;32;20213;-60
2023/01/20 07:22:11;;;;;;;0.73;0.73;;;;;;;6.63;71.87;94946.25;4314073;33;20220;-60
2023/01/20 07:24:36;;;;;;;1.13;1.13;;;;;;;7.40;73.31;94952.31;4319060;33;20226;-60
2023/01/20 07:27:02;;;;;;;1.33;1.33;;;;;;;7.64;67.18;94957.56;4328080;33;20190;-60
2023/01/20 07:29:27;;;;;;;2.40;2.20;;;;;;;7.95;63.72;94964.00;4328890;32;20248;-60
2023/01/20 07:31:52;;;;;;;1.43;1.33;;;;;;;7.81;57.77;94963.94;4317162;33;20255;-60
2023/01/20 07:34:18;;;;;;;1.87;1.83;;;;;;;7.84;59.16;94970.50;4339471;32;20201;-60
2023/01/20 07:36:43;;;;;;;1.27;1.27;;;;;;;8.40;63.29;94975.03;4318715;32;20249;-61
2023/01/20 07:39:10;;;;;;;1.20;1.20;;;;;;;8.08;58.47;94981.81;4322313;32;20210;-60
2023/01/20 07:41:37;;;;;;;1.43;1.40;;;;;;;8.43;60.49;94985.03;4328700;33;20198;-60
2023/01/20 07:44:03;;;;;;;2.13;2.03;;;;;;;8.40;58.05;94988.22;4328363;33;20318;-61
2023/01/20 07:46:29;;;;;;;2.40;2.23;;;;;;;8.25;58.80;94995.28;4327598;32;20205;-60
2023/01/20 07:48:55;;;;;;;1.97;1.87;;;;;;;7.84;56.71;95004.84;4326716;32;20209;-61
2023/01/20 07:51:21;;;;;;;1.33;1.33;;;;;;;7.64;55.44;95011.16;4328940;32;20202;-60
2023/01/20 07:53:48;;;;;;;1.63;1.53;;;;;;;8.40;60.26;95009.37;4327549;33;20209;-61
2023/01/20 07:56:25;;;;;;;2.63;2.43;;;;;;;8.13;58.33;95009.97;4308954;33;20273;-63
2023/01/20 07:58:53;;;;;;;1.90;1.77;;;;;;;7.28;54.90;95017.84;4315323;33;20204;-64
2023/01/20 08:01:24;;;;;;;1.33;1.33;;;;;;;4.97;58.95;95029.19;4308836;33;20250;-63
2023/01/20 08:03:50;;;;;;;1.93;1.83;;;;;;;3.97;64.20;95036.69;4331656;32;20189;-62
2023/01/20 08:06:18;;;;;;;2.07;1.97;;;;;;;3.62;65.54;95033.97;4313334;32;20356;-64
2023/01/20 08:08:44;;;;;;;1.13;1.13;;;;;;;2.98;68.17;95034.16;4314656;33;20357;-62
2023/01/20 08:11:12;;;;;;;1.07;1.07;;;;;;;2.35;71.49;95048.84;4328304;32;20287;-65
2023/01/20 08:13:39;;;;;;;1.80;1.70;;;;;;;1.72;74.68;95047.69;4327665;32;20424;-63
2023/01/20 08:16:07;;;;;;;1.50;1.50;;;;;;;1.63;76.04;95052.59;4324032;32;20282;-64
2023/01/20 08:18:34;;;;;;;1.67;1.57;;;;;;;1.71;75.63;95046.13;4327895;32;20287;-64
2023/01/20 08:21:00;;;;;;;6.97;2.27;;;;;;;1.85;75.47;95049.16;4328780;32;20392;-64
2023/01/20 08:23:26;;;;;;;1.23;1.23;;;;;;;1.79;75.47;95050.91;4325312;32;20297;-64
2023/01/20 08:26:00;;;;;;;1.67;1.60;;;;;;;1.34;77.15;95054.56;4325977;32;20295;-62
2023/01/20 08:28:29;;;;;;;2.50;2.40;;;;;;;1.43;77.67;95054.94;4316592;32;20212;-65
2023/01/20 08:31:01;;;;;;;2.10;2.00;;;;;;;1.39;78.06;95064.28;4330766;32;20296;-64
2023/01/20 08:33:26;;;;;;;1.87;1.77;;;;;;;1.53;77.45;95057.66;4325113;32;20325;-67
2023/01/20 08:35:52;;;;;;;1.13;1.13;;;;;;;1.12;79.16;95058.97;4321518;32;20290;-64
2023/01/20 08:38:17;;;;;;;2.30;2.20;;;;;;;0.93;80.56;95065.50;4316746;32;20190;-64
2023/01/20 08:40:42;;;;;;;1.20;1.20;;;;;;;1.12;79.90;95066.00;4313585;32;20234;-64
2023/01/20 08:43:08;;;;;;;2.30;2.10;;;;;;;1.24;79.98;95071.94;4336301;32;20225;-63
2023/01/20 08:45:33;;;;;;;1.73;1.63;;;;;;;1.30;79.63;95073.56;4337793;32;20216;-64
2023/01/20 08:47:58;;;;;;;0.93;0.93;;;;;;;1.50;78.61;95075.66;4322137;32;20189;-64
2023/01/20 08:50:24;;;;;;;1.30;1.20;;;;;;;1.57;78.46;95076.28;4330556;32;20227;-64
2023/01/20 08:52:49;;;;;;;1.37;1.37;;;;;;;1.67;77.76;95087.63;4329079;32;20203;-63
2023/01/20 08:55:15;;;;;;;16.67;2.80;;;;;;;1.75;77.31;95086.44;4327490;32;20319;-63
2023/01/20 08:57:41;;;;;;;3.70;1.37;;;;;;;1.43;78.69;95090.75;4328299;32;20202;-63
2023/01/20 09:00:09;;;;;;;3.40;1.50;;;;;;;1.77;77.22;95088.81;4328626;32;20204;-63
2023/01/20 09:02:36;;;;;;;2.97;2.67;;;;;;;1.56;77.88;95098.22;4329540;32;20289;-63
2023/01/20 09:05:03;;;;;;;1.83;1.73;;;;;;;1.32;79.01;95106.28;4328924;32;20282;-63
2023/01/20 09:07:28;;;;;;;1.03;1.03;;;;;;;1.41;78.15;95105.88;4330285;32;20321;-64
2023/01/20 09:09:53;;;;;;;1.63;1.53;;;;;;;1.59;77.48;95105.56;4331038;32;20306;-65
2023/01/20 09:12:19;;;;;;;1.93;1.87;;;;;;;1.64;77.66;95108.25;4327195;32;20189;-63
2023/01/20 09:14:45;;;;;;;2.60;2.40;;;;;;;1.66;76.85;95111.44;4334288;32;20273;-64
2023/01/20 09:17:13;;;;;;;1.47;1.47;;;;;;;1.74;76.63;95111.00;4333635;32;20265;-64
2023/01/20 09:19:39;;;;;;;1.80;1.70;;;;;;;1.99;76.24;95113.13;4315962;32;20400;-62
2023/01/20 09:22:04;;;;;;;1.73;1.63;;;;;;;1.80;76.31;95122.31;4311108;32;20287;-62
2023/01/20 09:24:30;;;;;;;1.57;1.57;;;;;;;2.15;75.06;95114.06;4328069;33;20193;-62
2023/01/20 09:26:56;;;;;;;1.60;1.53;;;;;;;2.22;75.75;95115.47;4317492;33;20194;-60
2023/01/20 09:29:22;;;;;;;1.13;1.13;;;;;;;2.24;74.63;95113.41;4318525;33;20306;-63
2023/01/20 09:31:56;;;;;;;1.40;1.40;;;;;;;2.30;76.00;95119.47;4313588;33;20237;-63
2023/01/20 09:34:26;;;;;;;4.10;2.43;;;;;;;2.39;74.56;95116.16;4326979;32;20192;-63
2023/01/20 09:46:14;;;;;;;0.93;0.93;;;;;;;2.12;74.85;95132.88;4328532;32;20353;-63
2023/01/20 09:54:38;;;;;;;1.17;1.10;;;;;;;2.51;73.66;95136.16;4328779;33;20344;-64
2023/01/20 09:57:07;;;;;;;1.80;1.70;;;;;;;2.41;73.51;95139.47;4329555;32;20289;-64
2023/01/20 10:00:02;;;;;;;1.37;1.37;;;;;;;2.48;74.16;95142.69;4329813;33;20286;-64
2023/01/20 10:02:32;;;;;;;1.17;1.10;;;;;;;2.34;73.69;95149.34;4304640;33;20293;-64
2023/01/20 10:05:04;;;;;;;1.10;0.87;;;;;;;2.44;73.50;95141.59;4315961;33;20324;-64
2023/01/20 10:07:35;;;;;;;0.60;0.60;;;;;;;2.26;73.80;95147.19;4306410;33;20283;-64
2023/01/20 10:10:22;;;;;;;1.93;1.83;;;;;;;2.53;73.05;95140.13;4322179;32;20279;-64
2023/01/20 10:13:00;;;;;;;0.90;0.90;;;;;;;2.50;73.20;95148.47;4300751;33;20382;-64
2023/01/20 10:15:36;;;;;;;1.27;1.27;;;;;;;2.68;71.89;95150.75;4280369;33;20302;-64
2023/01/20 10:18:08;;;;;;;0.60;0.60;;;;;;;2.44;72.52;95154.69;4294926;32;20289;-64
2023/01/20 10:21:00;;;;;;;1.63;1.53;;;;;;;2.30;73.16;95153.47;4327208;32;20286;-64
2023/01/20 10:23:57;;;;;;;1.90;1.80;;;;;;;2.46;72.75;95155.25;4309881;33;20340;-64
2023/01/20 10:26:47;;;;;;;1.00;1.00;;;;;;;2.43;73.30;95147.88;4306901;33;20275;-64
2023/01/20 10:29:22;;;;;;;0.30;0.30;;;;;;;2.36;73.42;95152.50;4326852;33;20293;-64
2023/01/20 10:31:59;;;;;;;0.90;0.90;;;;;;;2.21;74.12;95157.59;4295902;33;20432;-63
2023/01/20 10:34:37;;;;;;;4.37;1.27;;;;;;;2.40;73.54;95145.75;4329790;32;20278;-63
2023/01/20 10:37:10;;;;;;;1.17;1.17;;;;;;;2.23;74.47;95151.06;4328446;33;20278;-64
2023/01/20 10:40:14;;;;;;;0.47;0.47;;;;;;;2.52;73.43;95146.37;4321752;32;20282;-64
2023/01/20 10:42:40;;;;;;;1.37;1.00;;;;;;;2.23;73.87;95148.47;4323611;33;20417;-64
2023/01/20 10:45:18;;;;;;;1.40;1.30;;;;;;;2.20;73.85;95156.00;4317664;32;20294;-64
2023/01/20 10:48:34;;;;;;;1.13;1.13;;;;;;;2.35;73.30;95156.16;4312617;33;20186;-64
2023/01/20 10:51:24;;;;;;;0.73;0.73;;;;;;;2.43;73.50;95150.50;4259727;33;20292;-64
2023/01/20 10:54:24;;;;;;;1.03;1.03;;;;;;;2.75;72.61;95151.31;4244693;33;20316;-64
2023/01/20 10:56:54;;;;;;;1.57;1.57;;;;;;;2.69;72.17;95149.72;4251830;33;20357;-64
2023/01/20 10:59:45;;;;;;;1.73;1.63;;;;;;;2.87;71.99;95148.56;4253747;33;20404;-63
2023/01/20 11:02:29;;;;;;;0.47;0.47;;;;;;;2.56;72.18;95150.09;4246528;33;20284;-63
2023/01/20 11:05:01;;;;;;;1.37;1.37;;;;;;;2.72;71.26;95151.03;4264032;33;20292;-63
2023/01/20 11:07:29;;;;;;;1.03;1.03;;;;;;;2.25;73.25;95145.59;4263752;33;20354;-64
2023/01/20 11:09:55;;;;;;;0.87;0.87;;;;;;;2.16;74.58;95152.28;4321399;33;20287;-64
2023/01/20 11:12:24;;;;;;;0.27;0.27;;;;;;;2.30;74.22;95153.47;4326921;33;20291;-63
2023/01/20 11:14:54;;;;;;;2.23;1.07;;;;;;;2.53;74.38;95147.97;4303956;32;20301;-64
2023/01/20 11:17:22;;;;;;;1.30;1.30;;;;;;;2.38;75.49;95156.47;4309606;32;20369;-63
2023/01/20 11:19:54;;;;;;;0.80;0.80;;;;;;;2.75;74.86;95153.16;4325496;32;20283;-64
2023/01/20 11:22:27;;;;;;;0.73;0.73;;;;;;;2.82;74.42;95152.97;4313042;32;20300;-64
2023/01/20 11:24:57;;;;;;;0.43;0.43;;;;;;;2.56;75.51;95154.53;4309076;33;20433;-64
2023/01/20 11:27:49;;;;;;;1.40;1.40;;;;;;;2.24;76.85;95159.72;4317443;32;20302;-64
2023/01/20 11:30:35;;;;;;;0.70;0.70;;;;;;;2.24;77.15;95154.47;4289848;32;20293;-64
2023/01/20 11:33:39;;;;;;;0.97;0.97;;;;;;;1.91;77.40;95164.03;4291423;32;20287;-65
2023/01/20 11:36:17;;;;;;;0.83;0.53;;;;;;;1.95;77.20;95161.72;4324680;32;20321;-64
2023/01/20 11:38:50;;;;;;;0.10;0.10;;;;;;;2.25;75.13;95161.28;4296838;33;20295;-65
2023/01/20 11:41:26;;;;;;;0.70;0.70;;;;;;;2.23;74.61;95160.75;4314180;33;20362;-64
2023/01/20 11:43:57;;;;;;;0.40;0.40;;;;;;;2.17;75.23;95159.09;4300748;33;20353;-64
2023/01/20 11:46:46;;;;;;;0.20;0.20;;;;;;;2.18;74.57;95156.25;4276920;32;20314;-64
2023/01/20 11:49:16;;;;;;;1.17;1.07;;;;;;;2.12;75.62;95161.66;4315433;33;20357;-64
2023/01/20 11:52:10;;;;;;;1.27;1.27;;;;;;;1.97;76.42;95160.44;4317415;32;20386;-64
2023/01/20 11:54:37;;;;;;;0.50;0.50;;;;;;;2.08;75.92;95156.09;4326062;32;20345;-64
2023/01/20 11:57:06;;;;;;;0.70;0.70;;;;;;;1.93;76.13;95156.72;4306411;32;20302;-64
2023/01/20 11:59:45;;;;;;;1.17;0.90;;;;;;;1.97;77.23;95159.66;4304396;32;20325;-64
2023/01/20 12:02:13;;;;;;;0.87;0.87;;;;;;;1.89;76.78;95158.25;4317838;32;20294;-64
2023/01/20 12:04:56;;;;;;;0.70;0.70;;;;;;;2.04;76.57;95158.44;4306942;32;20329;-64
2023/01/20 12:07:31;;;;;;;0.87;0.87;;;;;;;2.17;76.25;95156.47;4324185;32;20321;-64
2023/01/20 12:10:15;;;;;;;0.53;0.53;;;;;;;2.12;75.38;95154.59;4305280;32;20332;-65